sensor_id;sensor_type;location;lat;lon;timestamp;P1;durP1;ratioP1;P2;durP2;ratioP2
20324;SDS011;10320;49.482;11.256;2023-10-09T00:01:25;7.00;;;5.03;;
20324;SDS011;10320;49.482;11.256;2023-10-09T00:03:51;6.30;;;4.60;;
20324;SDS011;10320;49.482;11.256;2023-10-09T00:06:22;6.00;;;4.50;;
20324;SDS011;10320;49.482;11.256;2023-10-09T00:09:04;8.87;;;4.83;;
20324;SDS011;10320;49.482;11.256;2023-10-09T00:11:44;5.37;;;4.67;;
20324;SDS011;10320;49.482;11.256;2023-10-09T00:14:11;8.03;;;5.10;;
20324;SDS011;10320;49.482;11.256;2023-10-09T00:16:37;7.47;;;5.20;;
20324;SDS011;10320;49.482;11.256;2023-10-09T00:19:14;5.63;;;4.60;;
20324;SDS011;10320;49.482;11.256;2023-10-09T00:21:41;5.03;;;4.53;;
20324;SDS011;10320;49.482;11.256;2023-10-09T00:24:07;5.60;;;4.63;;
20324;SDS011;10320;49.482;11.256;2023-10-09T00:26:39;5.60;;;4.50;;
20324;SDS011;10320;49.482;11.256;2023-10-09T00:29:10;4.93;;;4.50;;
20324;SDS011;10320;49.482;11.256;2023-10-09T00:31:51;6.23;;;4.53;;
20324;SDS011;10320;49.482;11.256;2023-10-09T00:34:28;5.83;;;4.57;;
20324;SDS011;10320;49.482;11.256;2023-10-09T00:36:54;5.77;;;4.93;;
20324;SDS011;10320;49.482;11.256;2023-10-09T00:39:22;5.63;;;4.43;;
20324;SDS011;10320;49.482;11.256;2023-10-09T00:42:18;7.13;;;4.50;;
20324;SDS011;10320;49.482;11.256;2023-10-09T00:45:04;5.60;;;4.63;;
20324;SDS011;10320;49.482;11.256;2023-10-09T00:47:32;4.77;;;4.17;;
20324;SDS011;10320;49.482;11.256;2023-10-09T00:50:04;5.10;;;4.60;;
20324;SDS011;10320;49.482;11.256;2023-10-09T00:52:40;4.67;;;4.20;;
20324;SDS011;10320;49.482;11.256;2023-10-09T00:55:31;5.90;;;4.40;;
20324;SDS011;10320;49.482;11.256;2023-10-09T00:58:08;7.10;;;4.87;;
20324;SDS011;10320;49.482;11.256;2023-10-09T01:00:37;6.43;;;5.10;;
20324;SDS011;10320;49.482;11.256;2023-10-09T01:03:10;6.37;;;4.67;;
20324;SDS011;10320;49.482;11.256;2023-10-09T01:05:42;5.70;;;5.07;;
20324;SDS011;10320;49.482;11.256;2023-10-09T01:08:17;6.67;;;5.03;;
20324;SDS011;10320;49.482;11.256;2023-10-09T01:10:50;6.40;;;4.47;;
20324;SDS011;10320;49.482;11.256;2023-10-09T01:13:21;6.33;;;4.70;;
20324;SDS011;10320;49.482;11.256;2023-10-09T01:15:53;8.13;;;5.10;;
20324;SDS011;10320;49.482;11.256;2023-10-09T01:18:19;6.93;;;5.43;;
20324;SDS011;10320;49.482;11.256;2023-10-09T01:20:45;6.07;;;5.20;;
20324;SDS011;10320;49.482;11.256;2023-10-09T01:23:12;8.03;;;5.90;;
20324;SDS011;10320;49.482;11.256;2023-10-09T01:25:38;7.27;;;6.20;;
20324;SDS011;10320;49.482;11.256;2023-10-09T01:28:10;6.90;;;6.00;;
20324;SDS011;10320;49.482;11.256;2023-10-09T01:30:40;7.87;;;5.77;;
20324;SDS011;10320;49.482;11.256;2023-10-09T01:33:07;7.23;;;5.70;;
20324;SDS011;10320;49.482;11.256;2023-10-09T01:35:49;6.13;;;5.27;;
20324;SDS011;10320;49.482;11.256;2023-10-09T01:38:21;6.60;;;5.93;;
20324;SDS011;10320;49.482;11.256;2023-10-09T01:40:57;7.03;;;6.13;;
20324;SDS011;10320;49.482;11.256;2023-10-09T01:43:29;8.50;;;6.00;;
20324;SDS011;10320;49.482;11.256;2023-10-09T01:45:59;7.00;;;5.50;;
20324;SDS011;10320;49.482;11.256;2023-10-09T01:48:26;8.90;;;6.47;;
20324;SDS011;10320;49.482;11.256;2023-10-09T01:50:52;7.73;;;5.87;;
20324;SDS011;10320;49.482;11.256;2023-10-09T01:53:18;8.67;;;6.00;;
20324;SDS011;10320;49.482;11.256;2023-10-09T01:55:47;10.40;;;6.03;;
20324;SDS011;10320;49.482;11.256;2023-10-09T01:58:20;6.63;;;6.03;;
20324;SDS011;10320;49.482;11.256;2023-10-09T02:00:46;8.83;;;6.23;;
20324;SDS011;10320;49.482;11.256;2023-10-09T02:03:21;7.40;;;6.27;;
20324;SDS011;10320;49.482;11.256;2023-10-09T02:05:52;7.10;;;5.87;;
20324;SDS011;10320;49.482;11.256;2023-10-09T02:08:25;7.47;;;6.27;;
20324;SDS011;10320;49.482;11.256;2023-10-09T02:10:55;9.20;;;6.00;;
20324;SDS011;10320;49.482;11.256;2023-10-09T02:13:21;7.47;;;5.83;;
20324;SDS011;10320;49.482;11.256;2023-10-09T02:15:57;7.43;;;5.77;;
20324;SDS011;10320;49.482;11.256;2023-10-09T02:18:39;6.60;;;5.70;;
20324;SDS011;10320;49.482;11.256;2023-10-09T02:21:17;6.97;;;5.70;;
20324;SDS011;10320;49.482;11.256;2023-10-09T02:23:53;6.47;;;5.80;;
20324;SDS011;10320;49.482;11.256;2023-10-09T02:26:22;7.53;;;5.93;;
20324;SDS011;10320;49.482;11.256;2023-10-09T02:28:57;5.87;;;5.27;;
20324;SDS011;10320;49.482;11.256;2023-10-09T02:31:24;8.57;;;5.50;;
20324;SDS011;10320;49.482;11.256;2023-10-09T02:33:51;6.83;;;5.90;;
20324;SDS011;10320;49.482;11.256;2023-10-09T02:36:23;6.63;;;5.43;;
20324;SDS011;10320;49.482;11.256;2023-10-09T02:38:51;7.40;;;5.43;;
20324;SDS011;10320;49.482;11.256;2023-10-09T02:41:21;6.43;;;5.10;;
20324;SDS011;10320;49.482;11.256;2023-10-09T02:43:53;6.77;;;5.47;;
20324;SDS011;10320;49.482;11.256;2023-10-09T02:46:24;6.20;;;5.60;;
20324;SDS011;10320;49.482;11.256;2023-10-09T02:48:56;6.13;;;5.53;;
20324;SDS011;10320;49.482;11.256;2023-10-09T02:51:28;8.10;;;5.73;;
20324;SDS011;10320;49.482;11.256;2023-10-09T02:54:07;6.30;;;5.40;;
20324;SDS011;10320;49.482;11.256;2023-10-09T02:56:53;6.17;;;5.27;;
20324;SDS011;10320;49.482;11.256;2023-10-09T02:59:39;8.40;;;5.60;;
20324;SDS011;10320;49.482;11.256;2023-10-09T03:02:06;6.63;;;5.40;;
20324;SDS011;10320;49.482;11.256;2023-10-09T03:04:32;7.30;;;5.70;;
20324;SDS011;10320;49.482;11.256;2023-10-09T03:06:58;5.90;;;5.30;;
20324;SDS011;10320;49.482;11.256;2023-10-09T03:09:24;7.90;;;6.10;;
20324;SDS011;10320;49.482;11.256;2023-10-09T03:11:55;8.93;;;5.97;;
20324;SDS011;10320;49.482;11.256;2023-10-09T03:14:27;8.27;;;6.40;;
20324;SDS011;10320;49.482;11.256;2023-10-09T03:16:53;6.60;;;5.73;;
20324;SDS011;10320;49.482;11.256;2023-10-09T03:19:21;6.83;;;5.73;;
20324;SDS011;10320;49.482;11.256;2023-10-09T03:21:47;7.87;;;5.80;;
20324;SDS011;10320;49.482;11.256;2023-10-09T03:24:13;7.00;;;6.00;;
20324;SDS011;10320;49.482;11.256;2023-10-09T03:26:40;10.13;;;6.03;;
20324;SDS011;10320;49.482;11.256;2023-10-09T03:29:10;7.90;;;6.10;;
20324;SDS011;10320;49.482;11.256;2023-10-09T03:31:36;7.50;;;6.30;;
20324;SDS011;10320;49.482;11.256;2023-10-09T03:34:03;7.70;;;6.37;;
20324;SDS011;10320;49.482;11.256;2023-10-09T03:36:29;7.70;;;6.23;;
20324;SDS011;10320;49.482;11.256;2023-10-09T03:39:04;9.33;;;6.30;;
20324;SDS011;10320;49.482;11.256;2023-10-09T03:41:43;7.23;;;6.03;;
20324;SDS011;10320;49.482;11.256;2023-10-09T03:44:12;7.00;;;6.30;;
20324;SDS011;10320;49.482;11.256;2023-10-09T03:46:38;7.93;;;6.43;;
20324;SDS011;10320;49.482;11.256;2023-10-09T03:49:08;10.20;;;6.40;;
20324;SDS011;10320;49.482;11.256;2023-10-09T03:51:36;10.97;;;6.53;;
20324;SDS011;10320;49.482;11.256;2023-10-09T03:54:02;7.23;;;5.93;;
20324;SDS011;10320;49.482;11.256;2023-10-09T03:56:34;9.03;;;6.83;;
20324;SDS011;10320;49.482;11.256;2023-10-09T03:59:00;6.90;;;6.00;;
20324;SDS011;10320;49.482;11.256;2023-10-09T04:01:29;7.37;;;5.70;;
20324;SDS011;10320;49.482;11.256;2023-10-09T04:04:03;7.27;;;6.10;;
20324;SDS011;10320;49.482;11.256;2023-10-09T04:06:31;7.60;;;6.20;;
20324;SDS011;10320;49.482;11.256;2023-10-09T04:08:57;8.30;;;6.13;;
20324;SDS011;10320;49.482;11.256;2023-10-09T04:11:27;7.37;;;6.60;;
20324;SDS011;10320;49.482;11.256;2023-10-09T04:13:53;10.37;;;6.63;;
20324;SDS011;10320;49.482;11.256;2023-10-09T04:16:20;7.53;;;6.70;;
20324;SDS011;10320;49.482;11.256;2023-10-09T04:18:58;7.10;;;6.27;;
20324;SDS011;10320;49.482;11.256;2023-10-09T04:21:25;6.83;;;6.00;;
20324;SDS011;10320;49.482;11.256;2023-10-09T04:24:01;8.90;;;6.23;;
20324;SDS011;10320;49.482;11.256;2023-10-09T04:26:45;7.50;;;6.60;;
20324;SDS011;10320;49.482;11.256;2023-10-09T04:29:12;9.37;;;6.40;;
20324;SDS011;10320;49.482;11.256;2023-10-09T04:32:02;8.37;;;6.53;;
20324;SDS011;10320;49.482;11.256;2023-10-09T04:34:32;7.37;;;6.10;;
20324;SDS011;10320;49.482;11.256;2023-10-09T04:37:13;9.10;;;6.73;;
20324;SDS011;10320;49.482;11.256;2023-10-09T04:39:39;9.43;;;7.43;;
20324;SDS011;10320;49.482;11.256;2023-10-09T04:42:12;8.83;;;7.93;;
20324;SDS011;10320;49.482;11.256;2023-10-09T04:45:08;9.63;;;7.43;;
20324;SDS011;10320;49.482;11.256;2023-10-09T04:47:40;9.13;;;7.13;;
20324;SDS011;10320;49.482;11.256;2023-10-09T04:50:22;7.97;;;7.13;;
20324;SDS011;10320;49.482;11.256;2023-10-09T04:52:55;7.67;;;6.50;;
20324;SDS011;10320;49.482;11.256;2023-10-09T04:55:21;7.67;;;6.60;;
20324;SDS011;10320;49.482;11.256;2023-10-09T04:57:50;7.90;;;7.07;;
20324;SDS011;10320;49.482;11.256;2023-10-09T05:00:26;7.93;;;6.40;;
20324;SDS011;10320;49.482;11.256;2023-10-09T05:03:01;8.83;;;6.73;;
20324;SDS011;10320;49.482;11.256;2023-10-09T05:05:51;9.73;;;6.47;;
20324;SDS011;10320;49.482;11.256;2023-10-09T05:08:24;9.10;;;6.63;;
20324;SDS011;10320;49.482;11.256;2023-10-09T05:10:54;7.83;;;6.50;;
20324;SDS011;10320;49.482;11.256;2023-10-09T05:13:33;7.67;;;6.30;;
20324;SDS011;10320;49.482;11.256;2023-10-09T05:18:57;8.63;;;7.07;;
20324;SDS011;10320;49.482;11.256;2023-10-09T05:21:40;9.23;;;7.20;;
20324;SDS011;10320;49.482;11.256;2023-10-09T05:24:12;7.77;;;6.97;;
20324;SDS011;10320;49.482;11.256;2023-10-09T05:26:39;9.13;;;6.87;;
20324;SDS011;10320;49.482;11.256;2023-10-09T05:29:12;8.37;;;6.37;;
20324;SDS011;10320;49.482;11.256;2023-10-09T05:31:47;9.30;;;6.93;;
20324;SDS011;10320;49.482;11.256;2023-10-09T05:34:32;9.17;;;6.57;;
20324;SDS011;10320;49.482;11.256;2023-10-09T05:37:38;12.67;;;7.13;;
20324;SDS011;10320;49.482;11.256;2023-10-09T05:40:24;9.70;;;6.27;;
20324;SDS011;10320;49.482;11.256;2023-10-09T05:42:56;8.10;;;7.20;;
20324;SDS011;10320;49.482;11.256;2023-10-09T05:45:28;7.90;;;6.40;;
20324;SDS011;10320;49.482;11.256;2023-10-09T05:48:23;7.63;;;6.27;;
20324;SDS011;10320;49.482;11.256;2023-10-09T05:51:10;7.67;;;6.63;;
20324;SDS011;10320;49.482;11.256;2023-10-09T05:53:38;9.33;;;6.90;;
20324;SDS011;10320;49.482;11.256;2023-10-09T05:56:10;10.40;;;7.50;;
20324;SDS011;10320;49.482;11.256;2023-10-09T05:58:55;10.10;;;7.00;;
20324;SDS011;10320;49.482;11.256;2023-10-09T06:01:39;9.17;;;7.27;;
20324;SDS011;10320;49.482;11.256;2023-10-09T06:04:23;8.60;;;7.00;;
20324;SDS011;10320;49.482;11.256;2023-10-09T06:07:14;9.37;;;7.13;;
20324;SDS011;10320;49.482;11.256;2023-10-09T06:09:48;11.53;;;9.67;;
20324;SDS011;10320;49.482;11.256;2023-10-09T06:12:23;10.43;;;7.27;;
20324;SDS011;10320;49.482;11.256;2023-10-09T06:14:58;10.73;;;7.50;;
20324;SDS011;10320;49.482;11.256;2023-10-09T06:17:44;10.60;;;7.80;;
20324;SDS011;10320;49.482;11.256;2023-10-09T06:20:15;11.53;;;7.67;;
20324;SDS011;10320;49.482;11.256;2023-10-09T06:23:10;11.83;;;7.80;;
20324;SDS011;10320;49.482;11.256;2023-10-09T06:25:48;9.80;;;8.30;;
20324;SDS011;10320;49.482;11.256;2023-10-09T06:28:18;9.33;;;7.67;;
20324;SDS011;10320;49.482;11.256;2023-10-09T06:30:57;10.93;;;7.80;;
20324;SDS011;10320;49.482;11.256;2023-10-09T06:33:43;9.67;;;7.07;;
20324;SDS011;10320;49.482;11.256;2023-10-09T06:36:29;9.63;;;6.90;;
20324;SDS011;10320;49.482;11.256;2023-10-09T06:38:56;7.40;;;6.70;;
20324;SDS011;10320;49.482;11.256;2023-10-09T06:41:41;6.70;;;6.00;;
20324;SDS011;10320;49.482;11.256;2023-10-09T06:44:10;8.20;;;6.43;;
20324;SDS011;10320;49.482;11.256;2023-10-09T06:46:56;7.00;;;6.27;;
20324;SDS011;10320;49.482;11.256;2023-10-09T06:49:32;6.93;;;6.10;;
20324;SDS011;10320;49.482;11.256;2023-10-09T06:52:01;7.43;;;5.73;;
20324;SDS011;10320;49.482;11.256;2023-10-09T06:54:40;8.17;;;5.67;;
20324;SDS011;10320;49.482;11.256;2023-10-09T06:57:14;7.60;;;5.27;;
20324;SDS011;10320;49.482;11.256;2023-10-09T06:59:55;9.07;;;6.00;;
20324;SDS011;10320;49.482;11.256;2023-10-09T07:02:53;7.07;;;5.97;;
20324;SDS011;10320;49.482;11.256;2023-10-09T07:05:21;7.27;;;5.77;;
20324;SDS011;10320;49.482;11.256;2023-10-09T07:07:56;7.23;;;6.20;;
20324;SDS011;10320;49.482;11.256;2023-10-09T07:10:42;7.30;;;5.53;;
20324;SDS011;10320;49.482;11.256;2023-10-09T07:13:08;5.83;;;5.07;;
20324;SDS011;10320;49.482;11.256;2023-10-09T07:15:36;6.90;;;5.60;;
20324;SDS011;10320;49.482;11.256;2023-10-09T07:18:26;6.03;;;5.47;;
20324;SDS011;10320;49.482;11.256;2023-10-09T07:21:15;8.50;;;6.30;;
20324;SDS011;10320;49.482;11.256;2023-10-09T07:23:43;7.70;;;6.90;;
20324;SDS011;10320;49.482;11.256;2023-10-09T07:26:14;8.73;;;6.63;;
20324;SDS011;10320;49.482;11.256;2023-10-09T07:28:43;7.00;;;5.90;;
20324;SDS011;10320;49.482;11.256;2023-10-09T07:31:16;9.37;;;6.13;;
20324;SDS011;10320;49.482;11.256;2023-10-09T07:33:49;9.70;;;5.40;;
20324;SDS011;10320;49.482;11.256;2023-10-09T07:36:22;8.13;;;5.57;;
20324;SDS011;10320;49.482;11.256;2023-10-09T07:39:03;6.33;;;4.70;;
20324;SDS011;10320;49.482;11.256;2023-10-09T07:41:38;6.67;;;5.07;;
20324;SDS011;10320;49.482;11.256;2023-10-09T07:44:10;5.90;;;5.30;;
20324;SDS011;10320;49.482;11.256;2023-10-09T07:46:59;7.37;;;5.10;;
20324;SDS011;10320;49.482;11.256;2023-10-09T07:50:03;7.67;;;4.90;;
20324;SDS011;10320;49.482;11.256;2023-10-09T07:52:29;8.83;;;5.63;;
20324;SDS011;10320;49.482;11.256;2023-10-09T07:54:55;11.80;;;6.10;;
20324;SDS011;10320;49.482;11.256;2023-10-09T07:57:27;8.83;;;5.47;;
20324;SDS011;10320;49.482;11.256;2023-10-09T08:00:03;10.23;;;5.77;;
20324;SDS011;10320;49.482;11.256;2023-10-09T08:02:49;8.43;;;5.77;;
20324;SDS011;10320;49.482;11.256;2023-10-09T08:05:25;9.00;;;5.60;;
20324;SDS011;10320;49.482;11.256;2023-10-09T08:07:58;7.43;;;5.47;;
20324;SDS011;10320;49.482;11.256;2023-10-09T08:10:43;9.83;;;5.00;;
20324;SDS011;10320;49.482;11.256;2023-10-09T08:13:28;10.50;;;5.13;;
20324;SDS011;10320;49.482;11.256;2023-10-09T08:16:12;11.47;;;5.07;;
20324;SDS011;10320;49.482;11.256;2023-10-09T08:18:46;8.83;;;4.80;;
20324;SDS011;10320;49.482;11.256;2023-10-09T08:21:16;9.83;;;4.97;;
20324;SDS011;10320;49.482;11.256;2023-10-09T08:23:42;11.57;;;5.23;;
20324;SDS011;10320;49.482;11.256;2023-10-09T08:26:18;10.03;;;4.97;;
20324;SDS011;10320;49.482;11.256;2023-10-09T08:29:04;13.93;;;5.00;;
20324;SDS011;10320;49.482;11.256;2023-10-09T08:31:42;13.83;;;5.43;;
20324;SDS011;10320;49.482;11.256;2023-10-09T08:34:14;12.23;;;5.75;;
20324;SDS011;10320;49.482;11.256;2023-10-09T08:36:50;11.73;;;5.40;;
20324;SDS011;10320;49.482;11.256;2023-10-09T08:39:20;13.80;;;5.40;;
20324;SDS011;10320;49.482;11.256;2023-10-09T08:41:55;10.48;;;5.03;;
20324;SDS011;10320;49.482;11.256;2023-10-09T08:44:23;10.82;;;5.57;;
20324;SDS011;10320;49.482;11.256;2023-10-09T08:46:52;10.50;;;5.40;;
20324;SDS011;10320;49.482;11.256;2023-10-09T08:49:19;10.68;;;5.15;;
20324;SDS011;10320;49.482;11.256;2023-10-09T08:51:46;11.15;;;5.43;;
20324;SDS011;10320;49.482;11.256;2023-10-09T08:54:13;11.63;;;5.55;;
20324;SDS011;10320;49.482;11.256;2023-10-09T08:56:40;13.88;;;5.97;;
20324;SDS011;10320;49.482;11.256;2023-10-09T08:59:14;11.23;;;5.30;;
20324;SDS011;10320;49.482;11.256;2023-10-09T09:01:47;10.02;;;5.18;;
20324;SDS011;10320;49.482;11.256;2023-10-09T09:04:37;10.07;;;5.22;;
20324;SDS011;10320;49.482;11.256;2023-10-09T09:07:04;11.93;;;5.35;;
20324;SDS011;10320;49.482;11.256;2023-10-09T09:09:31;11.02;;;4.93;;
20324;SDS011;10320;49.482;11.256;2023-10-09T09:11:59;10.35;;;4.80;;
20324;SDS011;10320;49.482;11.256;2023-10-09T09:14:35;13.30;;;5.32;;
20324;SDS011;10320;49.482;11.256;2023-10-09T09:17:02;12.00;;;5.35;;
20324;SDS011;10320;49.482;11.256;2023-10-09T09:19:32;9.23;;;5.00;;
20324;SDS011;10320;49.482;11.256;2023-10-09T09:22:03;11.68;;;5.55;;
20324;SDS011;10320;49.482;11.256;2023-10-09T09:24:39;13.40;;;5.35;;
20324;SDS011;10320;49.482;11.256;2023-10-09T09:27:12;11.27;;;5.00;;
20324;SDS011;10320;49.482;11.256;2023-10-09T09:29:43;10.05;;;4.72;;
20324;SDS011;10320;49.482;11.256;2023-10-09T09:32:19;10.90;;;5.75;;
20324;SDS011;10320;49.482;11.256;2023-10-09T09:34:55;12.70;;;5.50;;
20324;SDS011;10320;49.482;11.256;2023-10-09T09:37:26;8.52;;;4.97;;
20324;SDS011;10320;49.482;11.256;2023-10-09T09:40:01;10.38;;;5.60;;
20324;SDS011;10320;49.482;11.256;2023-10-09T09:42:40;10.18;;;4.90;;
20324;SDS011;10320;49.482;11.256;2023-10-09T09:45:10;9.18;;;5.45;;
20324;SDS011;10320;49.482;11.256;2023-10-09T09:47:36;7.78;;;5.20;;
20324;SDS011;10320;49.482;11.256;2023-10-09T09:50:04;12.75;;;5.10;;
20324;SDS011;10320;49.482;11.256;2023-10-09T09:52:47;10.85;;;4.93;;
20324;SDS011;10320;49.482;11.256;2023-10-09T09:55:18;12.95;;;5.55;;
20324;SDS011;10320;49.482;11.256;2023-10-09T09:57:48;9.75;;;5.28;;
20324;SDS011;10320;49.482;11.256;2023-10-09T10:00:18;11.82;;;6.22;;
20324;SDS011;10320;49.482;11.256;2023-10-09T10:02:54;15.52;;;7.25;;
20324;SDS011;10320;49.482;11.256;2023-10-09T10:05:24;11.27;;;5.57;;
20324;SDS011;10320;49.482;11.256;2023-10-09T10:07:54;9.40;;;5.55;;
20324;SDS011;10320;49.482;11.256;2023-10-09T10:10:42;10.55;;;5.50;;
20324;SDS011;10320;49.482;11.256;2023-10-09T10:16:05;11.93;;;5.90;;
20324;SDS011;10320;49.482;11.256;2023-10-09T10:18:59;10.45;;;5.25;;
20324;SDS011;10320;49.482;11.256;2023-10-09T10:21:32;10.63;;;5.47;;
20324;SDS011;10320;49.482;11.256;2023-10-09T10:30:40;21.85;;;10.93;;
20324;SDS011;10320;49.482;11.256;2023-10-09T10:35:21;11.07;;;5.85;;
20324;SDS011;10320;49.482;11.256;2023-10-09T10:40:49;12.43;;;5.80;;
20324;SDS011;10320;49.482;11.256;2023-10-09T10:43:30;9.43;;;5.82;;
20324;SDS011;10320;49.482;11.256;2023-10-09T10:46:15;8.88;;;5.32;;
20324;SDS011;10320;49.482;11.256;2023-10-09T10:49:02;9.52;;;5.50;;
20324;SDS011;10320;49.482;11.256;2023-10-09T10:51:56;8.77;;;5.80;;
20324;SDS011;10320;49.482;11.256;2023-10-09T10:54:42;11.43;;;5.97;;
20324;SDS011;10320;49.482;11.256;2023-10-09T10:57:18;11.02;;;5.70;;
20324;SDS011;10320;49.482;11.256;2023-10-09T10:59:54;8.40;;;5.63;;
20324;SDS011;10320;49.482;11.256;2023-10-09T11:02:31;10.65;;;5.28;;
20324;SDS011;10320;49.482;11.256;2023-10-09T11:04:58;9.73;;;5.20;;
20324;SDS011;10320;49.482;11.256;2023-10-09T11:07:40;11.48;;;5.10;;
20324;SDS011;10320;49.482;11.256;2023-10-09T11:10:06;9.75;;;5.13;;
20324;SDS011;10320;49.482;11.256;2023-10-09T11:15:09;7.88;;;4.65;;
20324;SDS011;10320;49.482;11.256;2023-10-09T11:18:00;8.88;;;4.35;;
20324;SDS011;10320;49.482;11.256;2023-10-09T11:20:35;11.13;;;6.00;;
20324;SDS011;10320;49.482;11.256;2023-10-09T11:23:03;16.10;;;7.75;;
20324;SDS011;10320;49.482;11.256;2023-10-09T11:25:35;13.10;;;6.55;;
20324;SDS011;10320;49.482;11.256;2023-10-09T11:28:19;12.63;;;5.93;;
20324;SDS011;10320;49.482;11.256;2023-10-09T11:31:16;12.90;;;6.00;;
20324;SDS011;10320;49.482;11.256;2023-10-09T11:33:50;15.07;;;5.50;;
20324;SDS011;10320;49.482;11.256;2023-10-09T11:36:22;9.60;;;4.93;;
20324;SDS011;10320;49.482;11.256;2023-10-09T11:39:01;8.48;;;4.63;;
20324;SDS011;10320;49.482;11.256;2023-10-09T11:41:45;13.50;;;5.03;;
20324;SDS011;10320;49.482;11.256;2023-10-09T11:44:14;9.10;;;4.32;;
20324;SDS011;10320;49.482;11.256;2023-10-09T11:47:02;8.40;;;4.28;;
20324;SDS011;10320;49.482;11.256;2023-10-09T11:49:52;9.40;;;4.45;;
20324;SDS011;10320;49.482;11.256;2023-10-09T11:52:43;9.27;;;5.20;;
20324;SDS011;10320;49.482;11.256;2023-10-09T11:55:22;10.23;;;4.85;;
20324;SDS011;10320;49.482;11.256;2023-10-09T11:57:50;10.65;;;4.60;;
20324;SDS011;10320;49.482;11.256;2023-10-09T12:00:16;11.93;;;4.45;;
20324;SDS011;10320;49.482;11.256;2023-10-09T12:02:54;14.88;;;4.40;;
20324;SDS011;10320;49.482;11.256;2023-10-09T12:05:20;10.15;;;4.30;;
20324;SDS011;10320;49.482;11.256;2023-10-09T12:07:48;11.55;;;4.47;;
20324;SDS011;10320;49.482;11.256;2023-10-09T12:10:22;12.93;;;4.75;;
20324;SDS011;10320;49.482;11.256;2023-10-09T12:12:54;9.23;;;4.38;;
20324;SDS011;10320;49.482;11.256;2023-10-09T12:15:26;11.25;;;4.72;;
20324;SDS011;10320;49.482;11.256;2023-10-09T12:18:02;10.07;;;3.90;;
20324;SDS011;10320;49.482;11.256;2023-10-09T12:20:28;10.43;;;4.38;;
20324;SDS011;10320;49.482;11.256;2023-10-09T12:22:58;10.18;;;4.80;;
20324;SDS011;10320;49.482;11.256;2023-10-09T12:25:24;9.07;;;4.50;;
20324;SDS011;10320;49.482;11.256;2023-10-09T12:27:50;8.15;;;4.32;;
20324;SDS011;10320;49.482;11.256;2023-10-09T12:30:22;9.50;;;5.45;;
20324;SDS011;10320;49.482;11.256;2023-10-09T12:32:52;10.82;;;4.90;;
20324;SDS011;10320;49.482;11.256;2023-10-09T12:35:18;11.68;;;5.03;;
20324;SDS011;10320;49.482;11.256;2023-10-09T12:37:44;12.25;;;4.35;;
20324;SDS011;10320;49.482;11.256;2023-10-09T12:40:11;10.85;;;5.05;;
20324;SDS011;10320;49.482;11.256;2023-10-09T12:42:38;9.95;;;4.63;;
20324;SDS011;10320;49.482;11.256;2023-10-09T12:45:05;10.38;;;5.07;;
20324;SDS011;10320;49.482;11.256;2023-10-09T12:47:35;10.40;;;5.22;;
20324;SDS011;10320;49.482;11.256;2023-10-09T12:50:04;12.45;;;6.20;;
20324;SDS011;10320;49.482;11.256;2023-10-09T12:52:35;10.48;;;5.38;;
20324;SDS011;10320;49.482;11.256;2023-10-09T12:55:02;11.27;;;5.97;;
20324;SDS011;10320;49.482;11.256;2023-10-09T12:57:32;13.18;;;5.53;;
20324;SDS011;10320;49.482;11.256;2023-10-09T12:59:58;11.77;;;5.63;;
20324;SDS011;10320;49.482;11.256;2023-10-09T13:02:24;14.93;;;5.55;;
20324;SDS011;10320;49.482;11.256;2023-10-09T13:04:56;13.82;;;5.75;;
20324;SDS011;10320;49.482;11.256;2023-10-09T13:07:22;11.95;;;4.85;;
20324;SDS011;10320;49.482;11.256;2023-10-09T13:09:48;8.27;;;4.82;;
20324;SDS011;10320;49.482;11.256;2023-10-09T13:12:33;7.38;;;4.13;;
20324;SDS011;10320;49.482;11.256;2023-10-09T13:14:59;10.18;;;4.45;;
20324;SDS011;10320;49.482;11.256;2023-10-09T13:17:25;12.95;;;4.88;;
20324;SDS011;10320;49.482;11.256;2023-10-09T13:19:52;11.63;;;4.85;;
20324;SDS011;10320;49.482;11.256;2023-10-09T13:22:19;12.68;;;4.45;;
20324;SDS011;10320;49.482;11.256;2023-10-09T13:24:48;11.35;;;4.40;;
20324;SDS011;10320;49.482;11.256;2023-10-09T13:27:15;9.65;;;3.85;;
20324;SDS011;10320;49.482;11.256;2023-10-09T13:29:46;10.90;;;4.15;;
20324;SDS011;10320;49.482;11.256;2023-10-09T13:32:13;11.02;;;4.57;;
20324;SDS011;10320;49.482;11.256;2023-10-09T13:34:40;10.20;;;4.10;;
20324;SDS011;10320;49.482;11.256;2023-10-09T13:37:12;7.43;;;3.80;;
20324;SDS011;10320;49.482;11.256;2023-10-09T13:39:39;9.82;;;4.38;;
20324;SDS011;10320;49.482;11.256;2023-10-09T13:42:17;9.93;;;4.00;;
20324;SDS011;10320;49.482;11.256;2023-10-09T13:44:43;11.25;;;3.83;;
20324;SDS011;10320;49.482;11.256;2023-10-09T13:47:09;8.85;;;4.20;;
20324;SDS011;10320;49.482;11.256;2023-10-09T13:49:44;12.23;;;4.25;;
20324;SDS011;10320;49.482;11.256;2023-10-09T13:52:10;8.15;;;4.13;;
20324;SDS011;10320;49.482;11.256;2023-10-09T13:54:43;10.93;;;4.32;;
20324;SDS011;10320;49.482;11.256;2023-10-09T13:57:13;7.40;;;4.10;;
20324;SDS011;10320;49.482;11.256;2023-10-09T13:59:40;8.55;;;4.13;;
20324;SDS011;10320;49.482;11.256;2023-10-09T14:02:15;10.85;;;4.35;;
20324;SDS011;10320;49.482;11.256;2023-10-09T14:04:46;9.82;;;4.10;;
20324;SDS011;10320;49.482;11.256;2023-10-09T14:07:12;7.93;;;4.20;;
20324;SDS011;10320;49.482;11.256;2023-10-09T14:09:42;7.15;;;4.15;;
20324;SDS011;10320;49.482;11.256;2023-10-09T14:12:08;9.82;;;4.05;;
20324;SDS011;10320;49.482;11.256;2023-10-09T14:17:04;9.95;;;4.18;;
20324;SDS011;10320;49.482;11.256;2023-10-09T14:19:36;9.32;;;3.90;;
20324;SDS011;10320;49.482;11.256;2023-10-09T14:22:02;10.13;;;4.22;;
20324;SDS011;10320;49.482;11.256;2023-10-09T14:24:30;8.20;;;4.03;;
20324;SDS011;10320;49.482;11.256;2023-10-09T14:26:58;11.80;;;4.78;;
20324;SDS011;10320;49.482;11.256;2023-10-09T14:29:27;12.25;;;4.05;;
20324;SDS011;10320;49.482;11.256;2023-10-09T14:31:56;10.95;;;4.35;;
20324;SDS011;10320;49.482;11.256;2023-10-09T14:34:28;9.57;;;3.88;;
20324;SDS011;10320;49.482;11.256;2023-10-09T14:37:00;9.27;;;4.00;;
20324;SDS011;10320;49.482;11.256;2023-10-09T14:39:29;10.85;;;4.97;;
20324;SDS011;10320;49.482;11.256;2023-10-09T14:41:58;10.68;;;4.90;;
20324;SDS011;10320;49.482;11.256;2023-10-09T14:44:24;9.70;;;4.85;;
20324;SDS011;10320;49.482;11.256;2023-10-09T14:46:53;8.80;;;4.60;;
20324;SDS011;10320;49.482;11.256;2023-10-09T14:49:20;10.45;;;5.60;;
20324;SDS011;10320;49.482;11.256;2023-10-09T14:51:47;12.85;;;5.20;;
20324;SDS011;10320;49.482;11.256;2023-10-09T14:54:13;10.00;;;4.70;;
20324;SDS011;10320;49.482;11.256;2023-10-09T14:56:43;9.48;;;4.78;;
20324;SDS011;10320;49.482;11.256;2023-10-09T14:59:10;9.18;;;5.18;;
20324;SDS011;10320;49.482;11.256;2023-10-09T15:01:37;9.00;;;4.38;;
20324;SDS011;10320;49.482;11.256;2023-10-09T15:04:03;8.05;;;4.25;;
20324;SDS011;10320;49.482;11.256;2023-10-09T15:06:29;11.10;;;4.43;;
20324;SDS011;10320;49.482;11.256;2023-10-09T15:08:56;12.00;;;4.57;;
20324;SDS011;10320;49.482;11.256;2023-10-09T15:11:23;7.40;;;4.10;;
20324;SDS011;10320;49.482;11.256;2023-10-09T15:13:50;8.18;;;4.55;;
20324;SDS011;10320;49.482;11.256;2023-10-09T15:16:17;6.32;;;4.43;;
20324;SDS011;10320;49.482;11.256;2023-10-09T15:18:46;9.52;;;4.38;;
20324;SDS011;10320;49.482;11.256;2023-10-09T15:21:13;8.15;;;4.57;;
20324;SDS011;10320;49.482;11.256;2023-10-09T15:23:41;7.43;;;4.40;;
20324;SDS011;10320;49.482;11.256;2023-10-09T15:26:08;10.88;;;4.32;;
20324;SDS011;10320;49.482;11.256;2023-10-09T15:28:34;12.77;;;4.70;;